createdAt,value
2019-04-20T00:00:14.522Z,43.10
2019-04-20T00:02:44.043Z,43.10
2019-04-20T00:05:09.378Z,43.10
2019-04-20T00:07:37.616Z,43.10
2019-04-20T00:10:09.878Z,43.10
2019-04-20T00:12:47.280Z,43.10
2019-04-20T00:14:58.580Z,43.10
2019-04-20T00:17:25.498Z,43.20
2019-04-20T00:19:54.549Z,43.10
2019-04-20T00:22:33.155Z,43.00
2019-04-20T00:25:04.033Z,42.90
2019-04-20T00:27:42.778Z,43.10
2019-04-20T00:30:06.718Z,43.10
2019-04-20T00:32:35.993Z,43.10
2019-04-20T00:34:47.648Z,43.70
2019-04-20T00:37:12.983Z,43.00
2019-04-20T00:39:40.568Z,43.20
2019-04-20T00:42:11.214Z,43.00
2019-04-20T00:44:38.168Z,43.10
2019-04-20T00:47:13.286Z,43.20
2019-04-20T00:49:45.908Z,43.10
2019-04-20T00:52:24.122Z,43.10
2019-04-20T00:54:24.172Z,43.00
2019-04-20T00:56:49.981Z,43.10
2019-04-20T00:59:30.196Z,43.10
2019-04-20T01:02:03.645Z,43.10
2019-04-20T01:04:29.987Z,42.90
2019-04-20T01:06:57.563Z,43.10
2019-04-20T01:09:18.334Z,43.10
2019-04-20T01:11:48.194Z,43.10
2019-04-20T01:14:14.565Z,43.20
2019-04-20T01:16:47.377Z,43.10
2019-04-20T01:19:06.675Z,43.20
2019-04-20T01:21:35.472Z,43.20
2019-04-20T01:24:04.557Z,43.20
2019-04-20T01:26:29.306Z,43.20
2019-04-20T01:29:09.111Z,43.20
2019-04-20T01:31:33.958Z,43.80
2019-04-20T01:33:58.769Z,43.80
2019-04-20T01:36:37.153Z,43.10
2019-04-20T01:38:56.417Z,43.20
2019-04-20T01:41:11.659Z,43.20
2019-04-20T01:43:39.408Z,43.20
2019-04-20T01:46:13.147Z,43.10
2019-04-20T01:48:35.590Z,43.00
2019-04-20T01:51:07.337Z,43.20
2019-04-20T01:53:44.203Z,43.10
2019-04-20T01:56:15.352Z,43.30
2019-04-20T01:58:53.552Z,43.20
2019-04-20T02:01:13.716Z,43.20
2019-04-20T02:03:48.166Z,43.10
2019-04-20T02:06:15.086Z,43.20
2019-04-20T02:08:37.865Z,43.20
2019-04-20T02:11:07.407Z,43.30
2019-04-20T02:13:36.205Z,43.30
2019-04-20T02:16:09.462Z,43.20
2019-04-20T02:18:35.894Z,43.10
2019-04-20T02:21:09.421Z,43.10
2019-04-20T02:23:32.550Z,43.20
2019-04-20T02:25:48.039Z,43.20
2019-04-20T02:28:34.705Z,43.20
2019-04-20T02:31:29.988Z,43.20
2019-04-20T02:36:20.636Z,43.20
2019-04-20T02:39:46.318Z,43.20
2019-04-20T02:42:17.872Z,43.20
2019-04-20T02:44:42.250Z,43.30
2019-04-20T02:47:07.253Z,43.30
2019-04-20T02:52:03.864Z,43.20
2019-04-20T02:54:25.977Z,43.20
2019-04-20T02:57:03.400Z,43.20
2019-04-20T02:59:47.266Z,43.20
2019-04-20T03:01:36.953Z,43.20
2019-04-20T03:03:52.182Z,43.10
2019-04-20T03:06:23.991Z,43.20
2019-04-20T03:09:04.955Z,43.20
2019-04-20T03:11:33.291Z,43.20
2019-04-20T03:13:54.579Z,43.10
2019-04-20T03:16:20.972Z,43.10
2019-04-20T03:18:44.543Z,43.20
2019-04-20T03:21:17.715Z,43.10
2019-04-20T03:23:54.256Z,43.10
2019-04-20T03:26:18.755Z,43.20
2019-04-20T03:28:47.091Z,43.10
2019-04-20T03:34:05.774Z,43.10
2019-04-20T03:36:18.161Z,43.20
2019-04-20T03:38:38.338Z,43.20
2019-04-20T03:40:55.396Z,43.20
2019-04-20T03:43:09.863Z,43.10
2019-04-20T03:45:45.987Z,43.20
2019-04-20T03:48:16.101Z,43.70
2019-04-20T03:50:53.288Z,43.20
2019-04-20T03:53:19.832Z,43.30
2019-04-20T03:55:53.613Z,43.30
2019-04-20T03:58:24.212Z,43.20
2019-04-20T04:00:54.471Z,43.20
2019-04-20T04:03:43.265Z,43.20
2019-04-20T04:05:55.747Z,43.30
2019-04-20T04:08:16.991Z,43.20
2019-04-20T04:10:55.155Z,43.30
2019-04-20T04:13:09.336Z,43.30
2019-04-20T04:15:36.223Z,43.30
2019-04-20T04:18:07.759Z,43.30
2019-04-20T04:20:38.702Z,43.30
2019-04-20T04:23:16.992Z,43.30
2019-04-20T04:25:35.555Z,43.30
2019-04-20T04:28:09.441Z,43.30
2019-04-20T04:30:32.090Z,43.30
2019-04-20T04:33:34.194Z,43.30
2019-04-20T04:35:23.452Z,43.30
2019-04-20T04:37:57.305Z,43.30
2019-04-20T04:40:32.850Z,43.30
2019-04-20T04:42:53.531Z,43.30
2019-04-20T04:45:06.203Z,43.30
2019-04-20T04:47:28.447Z,43.30
2019-04-20T04:50:03.446Z,43.30
2019-04-20T04:52:29.424Z,43.40
2019-04-20T04:54:58.750Z,43.30
2019-04-20T04:57:17.661Z,43.30
2019-04-20T04:59:44.575Z,43.30
2019-04-20T05:02:11.718Z,43.30
2019-04-20T05:05:04.918Z,43.40
2019-04-20T05:07:32.217Z,43.40
2019-04-20T05:09:42.874Z,43.40
2019-04-20T05:12:15.238Z,43.40
2019-04-20T05:14:46.071Z,43.30
2019-04-20T05:17:20.797Z,43.30
2019-04-20T05:19:52.821Z,44.10
2019-04-20T05:22:27.576Z,43.40
2019-04-20T05:25:02.131Z,43.50
2019-04-20T05:27:33.570Z,43.50
2019-04-20T05:29:39.384Z,43.50
2019-04-20T05:32:11.330Z,43.50
2019-04-20T05:35:02.463Z,43.60
2019-04-20T05:37:29.736Z,43.50
2019-04-20T05:39:54.730Z,43.50
2019-04-20T05:42:22.096Z,43.60
2019-04-20T05:44:45.578Z,43.50
2019-04-20T05:47:12.291Z,43.60
2019-04-20T05:49:34.809Z,43.60
2019-04-20T05:52:17.421Z,43.60
2019-04-20T05:54:37.458Z,43.60
2019-04-20T05:57:11.891Z,43.70
2019-04-20T05:59:27.013Z,43.60
2019-04-20T06:02:02.189Z,43.60
2019-04-20T06:04:30.135Z,43.70
2019-04-20T06:06:53.600Z,43.60
2019-04-20T06:09:18.266Z,43.70
2019-04-20T06:12:00.833Z,43.70
2019-04-20T06:14:13.285Z,43.70
2019-04-20T06:16:56.916Z,43.70
2019-04-20T06:21:57.395Z,43.70
2019-04-20T06:24:36.336Z,43.70
2019-04-20T06:27:00.866Z,43.70
2019-04-20T06:29:18.507Z,43.80
2019-04-20T06:31:48.995Z,43.80
2019-04-20T06:39:16.252Z,43.80
2019-04-20T06:42:01.952Z,43.80
2019-04-20T06:44:08.623Z,43.90
2019-04-20T06:46:36.251Z,43.80
2019-04-20T06:49:13.506Z,44.40
2019-04-20T06:51:31.034Z,43.80
2019-04-20T06:53:52.523Z,43.80
2019-04-20T06:56:32.233Z,43.80
2019-04-20T06:59:03.969Z,43.80
2019-04-20T07:01:25.128Z,43.80
2019-04-20T07:04:07.801Z,43.90
2019-04-20T07:06:35.628Z,43.80
2019-04-20T07:08:57.408Z,43.90
2019-04-20T07:11:18.687Z,43.80
2019-04-20T07:13:30.873Z,43.90
2019-04-20T07:16:13.734Z,43.90
2019-04-20T07:18:43.530Z,43.90
2019-04-20T07:21:28.845Z,44.00
2019-04-20T07:23:48.273Z,44.00
2019-04-20T07:26:19.361Z,44.00
2019-04-20T07:28:41.313Z,44.00
2019-04-20T07:31:01.852Z,44.00
2019-04-20T07:33:33.451Z,44.00
2019-04-20T07:35:56.233Z,44.00
2019-04-20T07:40:51.313Z,44.00
2019-04-20T07:43:16.397Z,44.00
2019-04-20T07:45:46.590Z,44.10
2019-04-20T07:48:27.872Z,44.10
2019-04-20T07:50:36.220Z,44.00
2019-04-20T07:53:04.427Z,44.10
2019-04-20T07:57:59.067Z,44.10
2019-04-20T08:00:38.541Z,44.10
2019-04-20T08:03:12.425Z,44.10
2019-04-20T08:05:36.460Z,44.10
2019-04-20T08:08:08.390Z,44.20
2019-04-20T08:10:34.194Z,44.20
2019-04-20T08:13:13.300Z,44.20
2019-04-20T08:15:47.237Z,44.10
2019-04-20T08:18:02.462Z,44.20
2019-04-20T08:20:25.741Z,44.20
2019-04-20T08:22:58.675Z,44.20
2019-04-20T08:25:13.293Z,44.20
2019-04-20T08:27:35.815Z,44.20
2019-04-20T08:30:22.857Z,44.20
2019-04-20T08:32:53.961Z,44.20
2019-04-20T08:35:35.518Z,44.20
2019-04-20T08:38:19.978Z,44.20
2019-04-20T08:40:29.864Z,44.20
2019-04-20T08:42:57.367Z,44.20
2019-04-20T08:45:17.981Z,44.20
2019-04-20T08:48:09.766Z,44.20
2019-04-20T08:50:17.112Z,44.30
2019-04-20T08:55:04.987Z,44.30
2019-04-20T08:57:13.725Z,44.30
2019-04-20T08:59:44.348Z,44.30
2019-04-20T09:02:11.963Z,44.30
2019-04-20T09:04:44.997Z,44.40
2019-04-20T09:07:09.510Z,44.40
2019-04-20T09:09:49.513Z,44.40
2019-04-20T09:12:16.738Z,44.40
2019-04-20T09:14:25.294Z,44.30
2019-04-20T09:17:00.064Z,44.30
2019-04-20T09:19:29.947Z,44.40
2019-04-20T09:22:09.801Z,44.30
2019-04-20T09:24:45.131Z,44.30
2019-04-20T09:27:04.647Z,44.40
2019-04-20T09:29:31.880Z,44.40
2019-04-20T09:32:08.160Z,44.40
2019-04-20T09:34:34.048Z,44.40
2019-04-20T09:37:09.595Z,44.40
2019-04-20T09:39:30.405Z,44.50
2019-04-20T09:42:01.134Z,44.40
2019-04-20T09:44:31.496Z,45.10
2019-04-20T09:46:56.944Z,44.40
2019-04-20T09:49:34.441Z,44.50
2019-04-20T09:52:03.875Z,44.40
2019-04-20T09:54:32.589Z,44.40
2019-04-20T09:57:07.535Z,44.40
2019-04-20T09:59:28.365Z,44.40
2019-04-20T10:01:44.601Z,44.40
2019-04-20T10:04:03.438Z,44.40
2019-04-20T10:06:33.642Z,44.40
2019-04-20T10:09:00.464Z,44.50
2019-04-20T10:11:25.427Z,44.40
2019-04-20T10:13:52.280Z,44.40
2019-04-20T10:16:19.669Z,44.40
2019-04-20T10:18:50.059Z,44.40
2019-04-20T10:21:13.764Z,44.40
2019-04-20T10:23:40.705Z,44.40
2019-04-20T10:26:07.065Z,44.50
2019-04-20T10:28:34.230Z,44.40
2019-04-20T10:31:02.293Z,44.30
2019-04-20T10:33:28.483Z,44.40
2019-04-20T10:35:55.573Z,44.40
2019-04-20T10:38:27.569Z,44.40
2019-04-20T10:41:04.417Z,44.40
2019-04-20T10:43:21.889Z,44.40
2019-04-20T10:45:48.855Z,44.30
2019-04-20T10:48:15.345Z,44.30
2019-04-20T10:50:43.141Z,44.30
2019-04-20T10:53:09.961Z,44.30
2019-04-20T10:55:37.758Z,44.30
2019-04-20T10:58:03.881Z,44.30
2019-04-20T11:00:37.618Z,44.30
2019-04-20T11:03:05.773Z,44.30
2019-04-20T11:05:32.812Z,44.30
2019-04-20T11:07:58.814Z,44.30
2019-04-20T11:10:29.257Z,44.30
2019-04-20T11:12:53.108Z,44.40
2019-04-20T11:15:20.951Z,44.30
2019-04-20T11:17:47.403Z,44.30
2019-04-20T11:20:15.173Z,44.30
2019-04-20T11:22:42.232Z,44.30
2019-04-20T11:25:10.234Z,44.30
2019-04-20T11:27:36.366Z,44.30
2019-04-20T11:30:04.394Z,44.30
2019-04-20T11:32:30.825Z,44.40
2019-04-20T11:35:02.214Z,44.30
2019-04-20T11:37:25.158Z,44.30
2019-04-20T11:39:52.914Z,44.30
2019-04-20T11:42:19.625Z,44.40
2019-04-20T11:44:46.853Z,44.30
2019-04-20T11:47:14.704Z,44.30
2019-04-20T11:49:41.611Z,44.40
2019-04-20T11:52:07.970Z,44.30
2019-04-20T11:54:35.063Z,44.30
2019-04-20T11:57:02.416Z,44.40
2019-04-20T11:59:30.395Z,44.40
2019-04-20T12:02:04.107Z,44.40
2019-04-20T12:04:41.514Z,44.40
2019-04-20T12:06:59.285Z,44.40
2019-04-20T12:09:26.387Z,44.40
2019-04-20T12:12:06.753Z,44.40
2019-04-20T12:14:20.823Z,44.40
2019-04-20T12:16:47.887Z,44.40
2019-04-20T12:19:14.970Z,44.40
2019-04-20T12:21:42.297Z,44.30
2019-04-20T12:24:10.100Z,44.30
2019-04-20T12:26:36.601Z,44.40
2019-04-20T12:29:03.627Z,44.30
2019-04-20T12:31:31.524Z,44.40
2019-04-20T12:33:58.117Z,44.40
2019-04-20T12:36:26.046Z,44.30
2019-04-20T12:38:53.133Z,44.30
2019-04-20T12:41:31.144Z,44.30
2019-04-20T12:43:47.597Z,44.40
2019-04-20T12:46:16.605Z,44.40
2019-04-20T12:48:41.838Z,44.20
2019-04-20T12:51:07.902Z,44.30
2019-04-20T12:53:35.017Z,44.30
2019-04-20T12:56:02.331Z,44.30
2019-04-20T12:58:30.477Z,44.30
2019-04-20T13:00:56.403Z,44.30
2019-04-20T13:03:23.643Z,44.40
2019-04-20T13:05:51.881Z,44.40
2019-04-20T13:08:24.964Z,44.30
2019-04-20T13:10:48.716Z,44.30
2019-04-20T13:13:20.726Z,44.30
2019-04-20T13:16:18.454Z,44.40
2019-04-20T13:18:53.041Z,44.30
2019-04-20T13:21:19.145Z,44.40
2019-04-20T13:23:47.069Z,44.40
2019-04-20T13:26:14.456Z,44.40
2019-04-20T13:28:41.232Z,44.40
2019-04-20T13:31:08.076Z,44.40
2019-04-20T13:33:34.592Z,44.40
2019-04-20T13:36:01.964Z,44.30
2019-04-20T13:38:30.073Z,44.40
2019-04-20T13:40:55.979Z,44.30
2019-04-20T13:43:23.789Z,44.30
2019-04-20T13:45:50.950Z,44.30
2019-04-20T13:48:17.530Z,44.30
2019-04-20T13:50:44.685Z,44.30
2019-04-20T13:53:11.789Z,44.30
2019-04-20T13:55:40.083Z,44.30
2019-04-20T13:58:11.693Z,44.20
2019-04-20T14:00:45.048Z,44.30
2019-04-20T14:03:11.354Z,44.20
2019-04-20T14:05:38.587Z,44.30
2019-04-20T14:08:05.544Z,44.30
2019-04-20T14:10:33.401Z,44.30
2019-04-20T14:13:07.237Z,44.30
2019-04-20T14:15:26.974Z,44.30
2019-04-20T14:17:55.163Z,44.30
2019-04-20T14:20:22.612Z,44.20
2019-04-20T14:22:49.172Z,44.20
2019-04-20T14:25:15.389Z,44.30
2019-04-20T14:27:42.700Z,44.20
2019-04-20T14:30:10.971Z,44.30
2019-04-20T14:32:36.865Z,44.20
2019-04-20T14:35:05.006Z,44.20
2019-04-20T14:37:31.440Z,44.20
2019-04-20T14:39:58.562Z,44.20
2019-04-20T14:42:35.562Z,44.90
2019-04-20T14:44:52.802Z,44.20
2019-04-20T14:47:19.963Z,44.20
2019-04-20T14:49:48.306Z,44.20
2019-04-20T14:52:15.429Z,44.20
2019-04-20T14:54:41.444Z,44.20
2019-04-20T14:57:09.548Z,44.30
2019-04-20T14:59:41.245Z,44.20
2019-04-20T15:02:10.479Z,44.20
2019-04-20T15:04:37.134Z,44.90
2019-04-20T15:07:04.978Z,44.30
2019-04-20T15:09:34.571Z,44.20
2019-04-20T15:12:00.936Z,44.20
2019-04-20T15:14:26.948Z,44.20
2019-04-20T15:16:53.951Z,44.20
2019-04-20T15:19:25.414Z,44.20
2019-04-20T15:21:53.569Z,44.20
2019-04-20T15:24:21.791Z,44.20
2019-04-20T15:26:48.737Z,44.20
2019-04-20T15:29:15.011Z,44.20
2019-04-20T15:31:42.171Z,44.20
2019-04-20T15:34:09.320Z,44.20
2019-04-20T15:36:36.381Z,44.20
2019-04-20T15:39:05.227Z,44.20
2019-04-20T15:41:31.749Z,44.20
2019-04-20T15:43:59.513Z,44.20
2019-04-20T15:46:25.944Z,44.10
2019-04-20T15:48:53.050Z,44.10
2019-04-20T15:51:21.600Z,44.20
2019-04-20T15:53:47.437Z,44.20
2019-04-20T15:56:14.541Z,44.20
2019-04-20T15:58:41.611Z,44.10
2019-04-20T16:01:10.261Z,44.20
2019-04-20T16:03:43.891Z,44.20
2019-04-20T16:06:11.474Z,44.20
2019-04-20T16:08:39.267Z,44.30
2019-04-20T16:11:07.057Z,44.20
2019-04-20T16:13:37.960Z,44.20
2019-04-20T16:16:01.527Z,44.20
2019-04-20T16:18:28.004Z,44.20
2019-04-20T16:21:05.209Z,44.20
2019-04-20T16:23:22.737Z,44.10
2019-04-20T16:25:55.596Z,44.20
2019-04-20T16:28:23.744Z,44.20
2019-04-20T16:30:51.729Z,44.10
2019-04-20T16:33:18.680Z,44.10
2019-04-20T16:35:44.783Z,44.10
2019-04-20T16:38:11.971Z,44.20
2019-04-20T16:40:39.031Z,44.10
2019-04-20T16:43:15.845Z,44.10
2019-04-20T16:45:33.271Z,44.10
2019-04-20T16:48:01.716Z,44.10
2019-04-20T16:50:28.825Z,44.10
2019-04-20T16:52:54.963Z,44.10
2019-04-20T16:55:22.879Z,44.00
2019-04-20T16:57:50.062Z,44.10
2019-04-20T17:00:15.996Z,44.10
2019-04-20T17:02:44.478Z,44.00
2019-04-20T17:05:11.252Z,44.20
2019-04-20T17:07:40.294Z,44.10
2019-04-20T17:10:07.702Z,44.10
2019-04-20T17:12:35.653Z,44.00
2019-04-20T17:15:03.472Z,44.10
2019-04-20T17:17:29.423Z,44.10
2019-04-20T17:19:57.557Z,44.10
2019-04-20T17:22:23.486Z,44.10
2019-04-20T17:24:51.528Z,44.10
2019-04-20T17:27:23.756Z,44.00
2019-04-20T17:29:56.982Z,44.00
2019-04-20T17:32:25.403Z,44.00
2019-04-20T17:35:03.145Z,44.10
2019-04-20T17:37:20.496Z,44.00
2019-04-20T17:40:06.407Z,44.00
2019-04-20T17:42:30.214Z,44.00
2019-04-20T17:44:50.226Z,44.10
2019-04-20T17:47:29.132Z,44.00
2019-04-20T17:49:58.909Z,44.00
2019-04-20T17:52:24.084Z,44.00
2019-04-20T17:54:35.620Z,44.00
2019-04-20T17:57:02.335Z,44.00
2019-04-20T17:59:30.394Z,44.00
2019-04-20T18:02:16.834Z,44.10
2019-04-20T18:05:02.356Z,44.00
2019-04-20T18:07:28.418Z,44.00
2019-04-20T18:09:50.418Z,44.00
2019-04-20T18:12:00.595Z,44.00
2019-04-20T18:14:37.453Z,44.00
2019-04-20T18:17:13.872Z,44.00
2019-04-20T18:19:34.226Z,44.10
2019-04-20T18:22:01.417Z,44.10
2019-04-20T18:24:48.994Z,44.00
2019-04-20T18:27:17.394Z,44.00
2019-04-20T18:29:42.840Z,44.00
2019-04-20T18:31:55.561Z,44.00
2019-04-20T18:34:29.298Z,44.00
2019-04-20T18:36:54.744Z,44.00
2019-04-20T18:39:29.097Z,44.00
2019-04-20T18:41:53.628Z,44.00
2019-04-20T18:44:22.336Z,44.00
2019-04-20T18:47:06.407Z,44.00
2019-04-20T18:49:26.950Z,44.00
2019-04-20T18:51:37.872Z,44.00
2019-04-20T18:54:08.281Z,44.00
2019-04-20T18:56:38.621Z,44.00
2019-04-20T18:59:00.929Z,44.00
2019-04-20T19:01:31.979Z,44.00
2019-04-20T19:03:54.099Z,44.00
2019-04-20T19:06:21.297Z,44.00
2019-04-20T19:08:51.502Z,44.00
2019-04-20T19:11:19.790Z,44.00
2019-04-20T19:13:51.164Z,44.00
2019-04-20T19:16:31.271Z,44.00
2019-04-20T19:19:06.620Z,44.00
2019-04-20T19:21:23.159Z,44.00
2019-04-20T19:23:57.996Z,43.90
2019-04-20T19:26:21.068Z,43.90
2019-04-20T19:28:49.747Z,44.00
2019-04-20T19:31:28.995Z,44.00
2019-04-20T19:34:01.835Z,43.90
2019-04-20T19:36:20.975Z,43.90
2019-04-20T19:38:45.663Z,43.90
2019-04-20T19:41:18.723Z,43.90
2019-04-20T19:43:33.566Z,43.90
2019-04-20T19:46:36.636Z,44.00
2019-04-20T19:48:37.217Z,43.90
2019-04-20T19:51:09.758Z,43.90
2019-04-20T19:53:36.639Z,43.90
2019-04-20T19:55:58.840Z,43.90
2019-04-20T19:58:26.549Z,43.90
2019-04-20T20:00:43.249Z,43.90
2019-04-20T20:03:09.977Z,43.90
2019-04-20T20:05:42.938Z,43.80
2019-04-20T20:08:11.336Z,43.90
2019-04-20T20:10:35.956Z,43.90
2019-04-20T20:13:01.185Z,43.80
2019-04-20T20:15:32.432Z,43.80
2019-04-20T20:18:12.697Z,43.80
2019-04-20T20:20:41.155Z,43.80
2019-04-20T20:22:50.531Z,43.80
2019-04-20T20:25:14.891Z,43.80
2019-04-20T20:27:49.445Z,43.80
2019-04-20T20:30:15.149Z,43.80
2019-04-20T20:32:55.115Z,43.80
2019-04-20T20:35:09.992Z,43.80
2019-04-20T20:37:34.662Z,43.90
2019-04-20T20:40:10.102Z,43.80
2019-04-20T20:42:32.937Z,43.80
2019-04-20T20:44:57.533Z,43.90
2019-04-20T20:47:41.188Z,43.90
2019-04-20T20:50:08.802Z,43.80
2019-04-20T20:52:27.687Z,43.90
2019-04-20T20:54:52.297Z,43.90
2019-04-20T20:57:14.850Z,43.90
2019-04-20T20:59:42.944Z,44.50
2019-04-20T21:02:11.579Z,43.90
2019-04-20T21:04:29.993Z,43.80
2019-04-20T21:06:56.253Z,43.90
2019-04-20T21:09:25.415Z,43.90
2019-04-20T21:12:00.028Z,43.90
2019-04-20T21:14:21.964Z,43.90
2019-04-20T21:16:53.457Z,43.80
2019-04-20T21:19:24.445Z,43.80
2019-04-20T21:21:49.954Z,43.80
2019-04-20T21:24:16.494Z,43.80
2019-04-20T21:26:42.698Z,43.80
2019-04-20T21:29:08.098Z,43.80
2019-04-20T21:31:34.438Z,43.90
2019-04-20T21:34:06.767Z,43.90
2019-04-20T21:36:31.345Z,43.80
2019-04-20T21:38:55.921Z,43.80
2019-04-20T21:41:25.359Z,43.80
2019-04-20T21:43:49.987Z,43.80
2019-04-20T21:46:18.627Z,43.80
2019-04-20T21:49:00.759Z,43.80
2019-04-20T21:51:24.373Z,43.70
2019-04-20T21:53:39.463Z,43.70
2019-04-20T21:56:06.019Z,43.80
2019-04-20T21:58:41.091Z,43.70
2019-04-20T22:01:12.489Z,43.80
2019-04-20T22:03:27.153Z,43.70
2019-04-20T22:05:58.617Z,43.80
2019-04-20T22:08:26.215Z,43.80
2019-04-20T22:10:53.480Z,43.70
2019-04-20T22:13:28.150Z,43.80
2019-04-20T22:15:55.778Z,43.80
2019-04-20T22:18:19.547Z,43.80
2019-04-20T22:20:52.229Z,43.80
2019-04-20T22:23:21.602Z,43.80
2019-04-20T22:25:53.105Z,43.80
2019-04-20T22:28:05.765Z,43.80
2019-04-20T22:30:32.238Z,43.80
2019-04-20T22:33:03.969Z,43.70
2019-04-20T22:35:31.384Z,43.80
2019-04-20T22:38:08.577Z,43.80
2019-04-20T22:40:33.046Z,43.80
2019-04-20T22:43:00.079Z,43.70
2019-04-20T22:45:24.286Z,43.70
2019-04-20T22:47:53.862Z,43.80
2019-04-20T22:50:33.619Z,43.80
2019-04-20T22:52:55.282Z,43.70
2019-04-20T22:55:38.932Z,43.80
2019-04-20T22:57:55.102Z,43.80
2019-04-20T23:00:12.972Z,43.80
2019-04-20T23:02:34.613Z,43.80
2019-04-20T23:05:02.839Z,43.80
2019-04-20T23:07:28.859Z,43.90
2019-04-20T23:09:58.976Z,43.80
2019-04-20T23:12:25.237Z,43.80
2019-04-20T23:14:50.335Z,43.80
2019-04-20T23:17:26.231Z,43.80
2019-04-20T23:19:49.486Z,43.80
2019-04-20T23:22:13.868Z,43.90
2019-04-20T23:24:39.331Z,43.80
2019-04-20T23:27:15.278Z,43.70
2019-04-20T23:29:37.943Z,43.80
2019-04-20T23:32:04.911Z,43.70
2019-04-20T23:34:31.000Z,43.80
2019-04-20T23:36:54.850Z,43.70
2019-04-20T23:39:23.345Z,43.80
2019-04-20T23:41:56.674Z,43.80
2019-04-20T23:44:23.126Z,43.70
2019-04-20T23:47:00.988Z,43.70
2019-04-20T23:49:29.933Z,43.80
2019-04-20T23:52:11.253Z,43.70
2019-04-20T23:54:25.196Z,43.70
2019-04-20T23:56:46.275Z,43.70
2019-04-20T23:59:14.706Z,43.70
